sensor_id;sensor_type;location;lat;lon;timestamp;temperature;humidity
40287;DHT22;25998;46.604;13.610;2022-11-30T00:00:28;3.10;99.90
40287;DHT22;25998;46.604;13.610;2022-11-30T00:03:39;3.00;99.90
40287;DHT22;25998;46.604;13.610;2022-11-30T00:06:50;3.20;99.90
40287;DHT22;25998;46.604;13.610;2022-11-30T00:10:07;3.20;99.90
40287;DHT22;25998;46.604;13.610;2022-11-30T00:13:17;3.20;99.90
40287;DHT22;25998;46.604;13.610;2022-11-30T00:16:28;3.20;99.90
40287;DHT22;25998;46.604;13.610;2022-11-30T00:19:39;3.20;99.90
40287;DHT22;25998;46.604;13.610;2022-11-30T00:22:50;3.00;99.90
40287;DHT22;25998;46.604;13.610;2022-11-30T00:26:06;2.80;99.90
40287;DHT22;25998;46.604;13.610;2022-11-30T00:29:17;2.80;99.90
40287;DHT22;25998;46.604;13.610;2022-11-30T00:32:28;3.00;99.90
40287;DHT22;25998;46.604;13.610;2022-11-30T00:35:39;3.00;99.90
40287;DHT22;25998;46.604;13.610;2022-11-30T00:38:50;3.00;99.90
40287;DHT22;25998;46.604;13.610;2022-11-30T00:42:01;2.90;99.90
40287;DHT22;25998;46.604;13.610;2022-11-30T00:45:12;2.90;99.90
40287;DHT22;25998;46.604;13.610;2022-11-30T00:48:23;2.80;99.90
40287;DHT22;25998;46.604;13.610;2022-11-30T00:51:34;2.80;99.90
40287;DHT22;25998;46.604;13.610;2022-11-30T00:54:45;2.70;99.90
40287;DHT22;25998;46.604;13.610;2022-11-30T00:57:56;2.80;99.90
40287;DHT22;25998;46.604;13.610;2022-11-30T01:01:07;2.90;99.90
40287;DHT22;25998;46.604;13.610;2022-11-30T01:04:18;2.90;99.90
40287;DHT22;25998;46.604;13.610;2022-11-30T01:07:29;2.80;99.90
40287;DHT22;25998;46.604;13.610;2022-11-30T01:10:41;2.60;99.90
40287;DHT22;25998;46.604;13.610;2022-11-30T01:13:54;2.70;99.90
40287;DHT22;25998;46.604;13.610;2022-11-30T01:17:04;2.80;99.90
40287;DHT22;25998;46.604;13.610;2022-11-30T01:20:15;2.70;99.90
40287;DHT22;25998;46.604;13.610;2022-11-30T01:23:26;2.80;99.90
40287;DHT22;25998;46.604;13.610;2022-11-30T01:26:37;2.90;99.90
40287;DHT22;25998;46.604;13.610;2022-11-30T01:29:48;2.90;99.90
40287;DHT22;25998;46.604;13.610;2022-11-30T01:33:05;2.90;99.90
40287;DHT22;25998;46.604;13.610;2022-11-30T01:36:18;2.70;99.90
40287;DHT22;25998;46.604;13.610;2022-11-30T01:39:29;2.50;99.90
40287;DHT22;25998;46.604;13.610;2022-11-30T01:42:45;2.50;99.90
40287;DHT22;25998;46.604;13.610;2022-11-30T01:45:57;2.60;99.90
40287;DHT22;25998;46.604;13.610;2022-11-30T01:52:28;2.80;99.90
40287;DHT22;25998;46.604;13.610;2022-11-30T01:55:42;2.80;99.90
40287;DHT22;25998;46.604;13.610;2022-11-30T01:58:54;2.70;99.90
40287;DHT22;25998;46.604;13.610;2022-11-30T02:02:05;2.70;99.90
40287;DHT22;25998;46.604;13.610;2022-11-30T02:05:16;2.70;99.90
40287;DHT22;25998;46.604;13.610;2022-11-30T02:08:29;2.60;99.90
40287;DHT22;25998;46.604;13.610;2022-11-30T02:11:41;2.80;99.90
40287;DHT22;25998;46.604;13.610;2022-11-30T02:14:54;2.90;99.90
40287;DHT22;25998;46.604;13.610;2022-11-30T02:18:14;2.90;99.90
40287;DHT22;25998;46.604;13.610;2022-11-30T02:21:34;2.80;99.90
40287;DHT22;25998;46.604;13.610;2022-11-30T02:24:55;2.60;99.90
40287;DHT22;25998;46.604;13.610;2022-11-30T02:31:53;2.30;99.90
40287;DHT22;25998;46.604;13.610;2022-11-30T02:35:07;2.30;99.90
40287;DHT22;25998;46.604;13.610;2022-11-30T02:38:20;2.30;99.90
40287;DHT22;25998;46.604;13.610;2022-11-30T02:41:36;2.40;99.90
40287;DHT22;25998;46.604;13.610;2022-11-30T02:44:49;2.30;99.90
40287;DHT22;25998;46.604;13.610;2022-11-30T02:48:07;2.30;99.90
40287;DHT22;25998;46.604;13.610;2022-11-30T02:51:21;2.30;99.90
40287;DHT22;25998;46.604;13.610;2022-11-30T02:54:35;2.40;99.90
40287;DHT22;25998;46.604;13.610;2022-11-30T02:57:45;2.50;99.90
40287;DHT22;25998;46.604;13.610;2022-11-30T03:00:56;2.70;99.90
40287;DHT22;25998;46.604;13.610;2022-11-30T03:04:07;2.70;99.90
40287;DHT22;25998;46.604;13.610;2022-11-30T03:07:18;2.70;99.90
40287;DHT22;25998;46.604;13.610;2022-11-30T03:10:29;2.90;99.90
40287;DHT22;25998;46.604;13.610;2022-11-30T03:13:39;2.90;99.90
40287;DHT22;25998;46.604;13.610;2022-11-30T03:16:50;2.70;99.90
40287;DHT22;25998;46.604;13.610;2022-11-30T03:20:01;2.60;99.90
40287;DHT22;25998;46.604;13.610;2022-11-30T03:23:12;2.50;99.90
40287;DHT22;25998;46.604;13.610;2022-11-30T03:26:23;2.50;99.90
40287;DHT22;25998;46.604;13.610;2022-11-30T03:29:33;2.50;99.90
40287;DHT22;25998;46.604;13.610;2022-11-30T03:32:44;2.50;99.90
40287;DHT22;25998;46.604;13.610;2022-11-30T03:36:03;2.60;99.90
40287;DHT22;25998;46.604;13.610;2022-11-30T03:39:14;2.60;99.90
40287;DHT22;25998;46.604;13.610;2022-11-30T03:42:25;2.60;99.90
40287;DHT22;25998;46.604;13.610;2022-11-30T03:45:36;2.70;99.90
40287;DHT22;25998;46.604;13.610;2022-11-30T03:48:47;2.60;99.90
40287;DHT22;25998;46.604;13.610;2022-11-30T03:51:58;2.60;99.90
40287;DHT22;25998;46.604;13.610;2022-11-30T03:55:09;2.50;99.90
40287;DHT22;25998;46.604;13.610;2022-11-30T03:58:21;2.60;99.90
40287;DHT22;25998;46.604;13.610;2022-11-30T04:01:32;2.70;99.90
40287;DHT22;25998;46.604;13.610;2022-11-30T04:04:42;2.60;99.90
40287;DHT22;25998;46.604;13.610;2022-11-30T04:07:53;2.60;99.90
40287;DHT22;25998;46.604;13.610;2022-11-30T04:11:05;2.70;99.90
40287;DHT22;25998;46.604;13.610;2022-11-30T04:14:16;2.60;99.90
40287;DHT22;25998;46.604;13.610;2022-11-30T04:17:26;2.40;99.90
40287;DHT22;25998;46.604;13.610;2022-11-30T04:20:37;2.50;99.90
40287;DHT22;25998;46.604;13.610;2022-11-30T04:23:48;2.70;99.90
40287;DHT22;25998;46.604;13.610;2022-11-30T04:26:59;2.60;99.90
40287;DHT22;25998;46.604;13.610;2022-11-30T04:30:10;2.60;99.90
40287;DHT22;25998;46.604;13.610;2022-11-30T04:33:21;2.50;99.90
40287;DHT22;25998;46.604;13.610;2022-11-30T04:36:32;2.50;99.90
40287;DHT22;25998;46.604;13.610;2022-11-30T04:39:43;2.40;99.90
40287;DHT22;25998;46.604;13.610;2022-11-30T04:42:54;2.50;99.90
40287;DHT22;25998;46.604;13.610;2022-11-30T04:46:05;2.60;99.90
40287;DHT22;25998;46.604;13.610;2022-11-30T04:49:16;2.50;99.90
40287;DHT22;25998;46.604;13.610;2022-11-30T04:52:27;2.40;99.90
40287;DHT22;25998;46.604;13.610;2022-11-30T04:55:37;2.40;99.90
40287;DHT22;25998;46.604;13.610;2022-11-30T04:58:48;2.50;99.90
40287;DHT22;25998;46.604;13.610;2022-11-30T05:01:59;2.60;99.90
40287;DHT22;25998;46.604;13.610;2022-11-30T05:05:10;2.70;99.90
40287;DHT22;25998;46.604;13.610;2022-11-30T05:08:21;2.70;99.90
40287;DHT22;25998;46.604;13.610;2022-11-30T05:11:32;2.70;99.90
40287;DHT22;25998;46.604;13.610;2022-11-30T05:14:43;2.70;99.90
40287;DHT22;25998;46.604;13.610;2022-11-30T05:18:00;2.70;99.90
40287;DHT22;25998;46.604;13.610;2022-11-30T05:21:11;2.70;99.90
40287;DHT22;25998;46.604;13.610;2022-11-30T05:24:22;2.60;99.90
40287;DHT22;25998;46.604;13.610;2022-11-30T05:27:33;2.60;99.90
40287;DHT22;25998;46.604;13.610;2022-11-30T05:30:44;2.60;99.90
40287;DHT22;25998;46.604;13.610;2022-11-30T05:33:55;2.80;99.90
40287;DHT22;25998;46.604;13.610;2022-11-30T05:37:06;3.00;99.90
40287;DHT22;25998;46.604;13.610;2022-11-30T05:40:17;2.90;99.90
40287;DHT22;25998;46.604;13.610;2022-11-30T05:43:28;2.80;99.90
40287;DHT22;25998;46.604;13.610;2022-11-30T05:46:39;2.70;99.90
40287;DHT22;25998;46.604;13.610;2022-11-30T05:49:50;2.60;99.90
40287;DHT22;25998;46.604;13.610;2022-11-30T05:53:00;2.50;99.90
40287;DHT22;25998;46.604;13.610;2022-11-30T05:56:14;2.50;99.90
40287;DHT22;25998;46.604;13.610;2022-11-30T05:59:26;2.40;99.90
40287;DHT22;25998;46.604;13.610;2022-11-30T06:02:37;2.60;99.90
40287;DHT22;25998;46.604;13.610;2022-11-30T06:05:51;2.60;99.90
40287;DHT22;25998;46.604;13.610;2022-11-30T06:09:02;2.70;99.90
40287;DHT22;25998;46.604;13.610;2022-11-30T06:12:13;2.70;99.90
40287;DHT22;25998;46.604;13.610;2022-11-30T06:15:24;2.70;99.90
40287;DHT22;25998;46.604;13.610;2022-11-30T06:18:36;2.60;99.90
40287;DHT22;25998;46.604;13.610;2022-11-30T06:21:47;2.60;99.90
40287;DHT22;25998;46.604;13.610;2022-11-30T06:24:58;2.70;99.90
40287;DHT22;25998;46.604;13.610;2022-11-30T06:28:09;2.70;99.90
40287;DHT22;25998;46.604;13.610;2022-11-30T06:31:20;2.70;99.90
40287;DHT22;25998;46.604;13.610;2022-11-30T06:34:31;2.70;99.90
40287;DHT22;25998;46.604;13.610;2022-11-30T06:37:42;2.70;99.90
40287;DHT22;25998;46.604;13.610;2022-11-30T06:40:53;2.70;99.90
40287;DHT22;25998;46.604;13.610;2022-11-30T06:44:08;2.60;99.90
40287;DHT22;25998;46.604;13.610;2022-11-30T06:47:19;2.60;99.90
40287;DHT22;25998;46.604;13.610;2022-11-30T06:50:30;2.60;99.90
40287;DHT22;25998;46.604;13.610;2022-11-30T06:53:42;2.50;99.90
40287;DHT22;25998;46.604;13.610;2022-11-30T06:56:56;2.50;99.90
40287;DHT22;25998;46.604;13.610;2022-11-30T07:00:08;2.60;99.90
40287;DHT22;25998;46.604;13.610;2022-11-30T07:03:19;2.60;99.90
40287;DHT22;25998;46.604;13.610;2022-11-30T07:06:30;2.70;99.90
40287;DHT22;25998;46.604;13.610;2022-11-30T07:09:41;2.70;99.90
40287;DHT22;25998;46.604;13.610;2022-11-30T07:12:52;2.70;99.90
40287;DHT22;25998;46.604;13.610;2022-11-30T07:16:05;2.70;99.90
40287;DHT22;25998;46.604;13.610;2022-11-30T07:19:16;2.70;99.90
40287;DHT22;25998;46.604;13.610;2022-11-30T07:22:27;2.70;99.90
40287;DHT22;25998;46.604;13.610;2022-11-30T07:25:37;2.70;99.90
40287;DHT22;25998;46.604;13.610;2022-11-30T07:29:06;2.60;99.90
40287;DHT22;25998;46.604;13.610;2022-11-30T07:32:18;2.60;99.90
40287;DHT22;25998;46.604;13.610;2022-11-30T07:35:29;2.90;99.90
40287;DHT22;25998;46.604;13.610;2022-11-30T07:38:39;2.80;99.90
40287;DHT22;25998;46.604;13.610;2022-11-30T07:41:50;2.80;99.90
40287;DHT22;25998;46.604;13.610;2022-11-30T07:45:01;2.90;99.90
40287;DHT22;25998;46.604;13.610;2022-11-30T07:48:12;2.90;99.90
40287;DHT22;25998;46.604;13.610;2022-11-30T07:51:23;2.90;99.90
40287;DHT22;25998;46.604;13.610;2022-11-30T07:54:33;2.80;99.90
40287;DHT22;25998;46.604;13.610;2022-11-30T07:57:44;2.70;99.90
40287;DHT22;25998;46.604;13.610;2022-11-30T08:01:07;2.80;99.90
40287;DHT22;25998;46.604;13.610;2022-11-30T08:04:18;2.90;99.90
40287;DHT22;25998;46.604;13.610;2022-11-30T08:07:29;2.90;99.90
40287;DHT22;25998;46.604;13.610;2022-11-30T08:10:40;2.80;99.90
40287;DHT22;25998;46.604;13.610;2022-11-30T08:13:52;2.80;99.90
40287;DHT22;25998;46.604;13.610;2022-11-30T08:17:03;2.90;99.90
40287;DHT22;25998;46.604;13.610;2022-11-30T08:20:14;3.00;99.90
40287;DHT22;25998;46.604;13.610;2022-11-30T08:23:27;2.90;99.90
40287;DHT22;25998;46.604;13.610;2022-11-30T08:26:38;2.90;99.90
40287;DHT22;25998;46.604;13.610;2022-11-30T08:29:49;2.90;99.90
40287;DHT22;25998;46.604;13.610;2022-11-30T08:32:59;2.90;99.90
40287;DHT22;25998;46.604;13.610;2022-11-30T08:36:12;2.90;99.90
40287;DHT22;25998;46.604;13.610;2022-11-30T08:39:23;2.90;99.90
40287;DHT22;25998;46.604;13.610;2022-11-30T08:42:37;2.90;99.90
40287;DHT22;25998;46.604;13.610;2022-11-30T08:45:48;3.00;99.90
40287;DHT22;25998;46.604;13.610;2022-11-30T08:49:02;3.00;99.90
40287;DHT22;25998;46.604;13.610;2022-11-30T08:52:13;3.00;99.90
40287;DHT22;25998;46.604;13.610;2022-11-30T08:55:24;3.00;99.90
40287;DHT22;25998;46.604;13.610;2022-11-30T08:58:37;3.10;99.90
40287;DHT22;25998;46.604;13.610;2022-11-30T09:01:48;3.00;99.90
40287;DHT22;25998;46.604;13.610;2022-11-30T09:04:59;3.00;99.90
40287;DHT22;25998;46.604;13.610;2022-11-30T09:08:09;3.00;99.90
40287;DHT22;25998;46.604;13.610;2022-11-30T09:11:29;3.10;99.90
40287;DHT22;25998;46.604;13.610;2022-11-30T09:14:40;3.00;99.90
40287;DHT22;25998;46.604;13.610;2022-11-30T09:17:52;3.00;99.90
40287;DHT22;25998;46.604;13.610;2022-11-30T09:21:06;3.00;99.90
40287;DHT22;25998;46.604;13.610;2022-11-30T09:24:20;2.90;99.90
40287;DHT22;25998;46.604;13.610;2022-11-30T09:27:32;3.00;99.90
40287;DHT22;25998;46.604;13.610;2022-11-30T09:30:43;3.00;99.90
40287;DHT22;25998;46.604;13.610;2022-11-30T09:33:57;2.90;99.90
40287;DHT22;25998;46.604;13.610;2022-11-30T09:37:08;2.90;99.90
40287;DHT22;25998;46.604;13.610;2022-11-30T09:40:20;2.90;99.90
40287;DHT22;25998;46.604;13.610;2022-11-30T09:50:18;2.90;99.90
40287;DHT22;25998;46.604;13.610;2022-11-30T09:53:41;3.00;99.90
40287;DHT22;25998;46.604;13.610;2022-11-30T09:56:53;3.00;99.90
40287;DHT22;25998;46.604;13.610;2022-11-30T10:00:11;3.10;99.90
40287;DHT22;25998;46.604;13.610;2022-11-30T10:03:24;3.10;99.90
40287;DHT22;25998;46.604;13.610;2022-11-30T10:21:14;3.00;99.90
40287;DHT22;25998;46.604;13.610;2022-11-30T10:31:13;3.10;99.90
40287;DHT22;25998;46.604;13.610;2022-11-30T10:34:36;3.10;99.90
40287;DHT22;25998;46.604;13.610;2022-11-30T10:37:50;3.20;99.90
40287;DHT22;25998;46.604;13.610;2022-11-30T10:41:24;3.20;99.90
40287;DHT22;25998;46.604;13.610;2022-11-30T10:44:39;3.20;99.90
40287;DHT22;25998;46.604;13.610;2022-11-30T10:48:11;3.20;99.90
40287;DHT22;25998;46.604;13.610;2022-11-30T10:51:26;3.20;99.90
40287;DHT22;25998;46.604;13.610;2022-11-30T10:54:37;3.20;99.90
40287;DHT22;25998;46.604;13.610;2022-11-30T10:57:53;3.20;99.90
40287;DHT22;25998;46.604;13.610;2022-11-30T11:01:10;3.20;99.90
40287;DHT22;25998;46.604;13.610;2022-11-30T11:04:38;3.10;99.90
40287;DHT22;25998;46.604;13.610;2022-11-30T11:11:53;3.10;99.90
40287;DHT22;25998;46.604;13.610;2022-11-30T11:15:15;3.10;99.90
40287;DHT22;25998;46.604;13.610;2022-11-30T11:18:31;3.00;99.90
40287;DHT22;25998;46.604;13.610;2022-11-30T11:21:45;3.10;99.90
40287;DHT22;25998;46.604;13.610;2022-11-30T11:28:18;3.00;99.90
40287;DHT22;25998;46.604;13.610;2022-11-30T11:31:43;3.00;99.90
40287;DHT22;25998;46.604;13.610;2022-11-30T11:34:58;3.00;99.90
40287;DHT22;25998;46.604;13.610;2022-11-30T11:38:49;3.00;99.90
40287;DHT22;25998;46.604;13.610;2022-11-30T11:41:59;3.10;99.90
40287;DHT22;25998;46.604;13.610;2022-11-30T11:48:37;3.20;99.90
40287;DHT22;25998;46.604;13.610;2022-11-30T11:52:05;3.20;99.90
40287;DHT22;25998;46.604;13.610;2022-11-30T11:55:18;3.20;99.90
40287;DHT22;25998;46.604;13.610;2022-11-30T12:05:45;3.10;99.90
40287;DHT22;25998;46.604;13.610;2022-11-30T12:09:35;3.10;99.90
40287;DHT22;25998;46.604;13.610;2022-11-30T12:12:49;3.20;99.90
40287;DHT22;25998;46.604;13.610;2022-11-30T12:19:30;3.20;99.90
40287;DHT22;25998;46.604;13.610;2022-11-30T12:33:32;3.10;99.90
40287;DHT22;25998;46.604;13.610;2022-11-30T12:36:49;3.20;99.90
40287;DHT22;25998;46.604;13.610;2022-11-30T12:43:36;3.10;99.90
40287;DHT22;25998;46.604;13.610;2022-11-30T12:47:42;3.10;99.90
40287;DHT22;25998;46.604;13.610;2022-11-30T12:57:37;3.20;99.90
40287;DHT22;25998;46.604;13.610;2022-11-30T13:04:24;3.40;99.90
40287;DHT22;25998;46.604;13.610;2022-11-30T13:08:03;3.40;99.90
40287;DHT22;25998;46.604;13.610;2022-11-30T13:11:22;3.40;99.90
40287;DHT22;25998;46.604;13.610;2022-11-30T13:14:35;3.30;99.90
40287;DHT22;25998;46.604;13.610;2022-11-30T13:17:46;3.20;99.90
40287;DHT22;25998;46.604;13.610;2022-11-30T13:21:33;3.10;99.90
40287;DHT22;25998;46.604;13.610;2022-11-30T13:24:41;3.20;99.90
40287;DHT22;25998;46.604;13.610;2022-11-30T13:28:09;3.10;99.90
40287;DHT22;25998;46.604;13.610;2022-11-30T13:31:30;3.20;99.90
40287;DHT22;25998;46.604;13.610;2022-11-30T13:34:43;3.20;99.90
40287;DHT22;25998;46.604;13.610;2022-11-30T13:38:20;3.20;99.90
40287;DHT22;25998;46.604;13.610;2022-11-30T13:41:31;3.20;99.90
40287;DHT22;25998;46.604;13.610;2022-11-30T13:44:43;3.20;99.90
40287;DHT22;25998;46.604;13.610;2022-11-30T13:47:55;3.20;99.90
40287;DHT22;25998;46.604;13.610;2022-11-30T13:51:07;3.20;99.90
40287;DHT22;25998;46.604;13.610;2022-11-30T14:04:32;3.20;99.90
40287;DHT22;25998;46.604;13.610;2022-11-30T14:14:45;3.00;99.90
40287;DHT22;25998;46.604;13.610;2022-11-30T14:17:57;3.00;99.90
40287;DHT22;25998;46.604;13.610;2022-11-30T14:24:36;2.90;99.90
40287;DHT22;25998;46.604;13.610;2022-11-30T14:27:49;3.00;99.90
40287;DHT22;25998;46.604;13.610;2022-11-30T14:31:06;3.00;99.90
40287;DHT22;25998;46.604;13.610;2022-11-30T14:34:29;3.00;99.90
40287;DHT22;25998;46.604;13.610;2022-11-30T14:37:51;3.00;99.90
40287;DHT22;25998;46.604;13.610;2022-11-30T14:41:02;3.00;99.90
40287;DHT22;25998;46.604;13.610;2022-11-30T14:44:13;3.00;99.90
40287;DHT22;25998;46.604;13.610;2022-11-30T14:47:33;3.00;99.90
40287;DHT22;25998;46.604;13.610;2022-11-30T14:50:52;3.00;99.90
40287;DHT22;25998;46.604;13.610;2022-11-30T15:01:25;2.90;99.90
40287;DHT22;25998;46.604;13.610;2022-11-30T15:04:36;3.00;99.90
40287;DHT22;25998;46.604;13.610;2022-11-30T15:07:48;3.00;99.90
40287;DHT22;25998;46.604;13.610;2022-11-30T15:11:04;3.10;99.90
40287;DHT22;25998;46.604;13.610;2022-11-30T15:14:16;3.00;99.90
40287;DHT22;25998;46.604;13.610;2022-11-30T15:17:27;3.10;99.90
40287;DHT22;25998;46.604;13.610;2022-11-30T15:24:01;3.00;99.90
40287;DHT22;25998;46.604;13.610;2022-11-30T15:27:14;3.10;99.90
40287;DHT22;25998;46.604;13.610;2022-11-30T15:30:31;3.00;99.90
40287;DHT22;25998;46.604;13.610;2022-11-30T15:33:44;3.00;99.90
40287;DHT22;25998;46.604;13.610;2022-11-30T15:36:58;3.00;99.90
40287;DHT22;25998;46.604;13.610;2022-11-30T15:40:13;3.00;99.90
40287;DHT22;25998;46.604;13.610;2022-11-30T15:43:24;2.90;99.90
40287;DHT22;25998;46.604;13.610;2022-11-30T15:46:39;2.90;99.90
40287;DHT22;25998;46.604;13.610;2022-11-30T15:49:52;3.10;99.90
40287;DHT22;25998;46.604;13.610;2022-11-30T15:56:35;3.10;99.90
40287;DHT22;25998;46.604;13.610;2022-11-30T16:00:18;3.00;99.90
40287;DHT22;25998;46.604;13.610;2022-11-30T16:03:30;3.00;99.90
40287;DHT22;25998;46.604;13.610;2022-11-30T16:06:46;3.00;99.90
40287;DHT22;25998;46.604;13.610;2022-11-30T16:10:12;3.00;99.90
40287;DHT22;25998;46.604;13.610;2022-11-30T16:13:26;2.80;99.90
40287;DHT22;25998;46.604;13.610;2022-11-30T16:16:40;2.80;99.90
40287;DHT22;25998;46.604;13.610;2022-11-30T16:19:51;2.80;99.90
40287;DHT22;25998;46.604;13.610;2022-11-30T16:23:01;2.80;99.90
40287;DHT22;25998;46.604;13.610;2022-11-30T16:26:15;2.80;99.90
40287;DHT22;25998;46.604;13.610;2022-11-30T16:29:26;2.70;99.90
40287;DHT22;25998;46.604;13.610;2022-11-30T16:32:37;2.60;99.90
40287;DHT22;25998;46.604;13.610;2022-11-30T16:36:12;2.50;99.90
40287;DHT22;25998;46.604;13.610;2022-11-30T16:39:23;2.60;99.90
40287;DHT22;25998;46.604;13.610;2022-11-30T16:42:34;2.70;99.90
40287;DHT22;25998;46.604;13.610;2022-11-30T16:45:47;2.80;99.90
40287;DHT22;25998;46.604;13.610;2022-11-30T16:49:00;2.90;99.90
40287;DHT22;25998;46.604;13.610;2022-11-30T16:52:14;2.90;99.90
40287;DHT22;25998;46.604;13.610;2022-11-30T16:55:33;2.90;99.90
40287;DHT22;25998;46.604;13.610;2022-11-30T16:58:47;2.90;99.90
40287;DHT22;25998;46.604;13.610;2022-11-30T17:01:58;2.80;99.90
40287;DHT22;25998;46.604;13.610;2022-11-30T17:05:11;2.80;99.90
40287;DHT22;25998;46.604;13.610;2022-11-30T17:08:22;2.90;99.90
40287;DHT22;25998;46.604;13.610;2022-11-30T17:11:35;2.90;99.90
40287;DHT22;25998;46.604;13.610;2022-11-30T17:14:46;2.90;99.90
40287;DHT22;25998;46.604;13.610;2022-11-30T17:17:57;2.80;99.90
40287;DHT22;25998;46.604;13.610;2022-11-30T17:21:22;2.80;99.90
40287;DHT22;25998;46.604;13.610;2022-11-30T17:24:34;2.90;99.90
40287;DHT22;25998;46.604;13.610;2022-11-30T17:27:45;2.90;99.90
40287;DHT22;25998;46.604;13.610;2022-11-30T17:30:56;2.80;99.90
40287;DHT22;25998;46.604;13.610;2022-11-30T17:34:07;2.80;99.90
40287;DHT22;25998;46.604;13.610;2022-11-30T17:37:20;3.00;99.90
40287;DHT22;25998;46.604;13.610;2022-11-30T17:40:35;2.90;99.90
40287;DHT22;25998;46.604;13.610;2022-11-30T17:43:48;3.10;99.90
40287;DHT22;25998;46.604;13.610;2022-11-30T17:46:59;3.00;99.90
40287;DHT22;25998;46.604;13.610;2022-11-30T17:50:10;3.00;99.90
40287;DHT22;25998;46.604;13.610;2022-11-30T17:53:21;3.00;99.90
40287;DHT22;25998;46.604;13.610;2022-11-30T17:56:32;2.90;99.90
40287;DHT22;25998;46.604;13.610;2022-11-30T17:59:43;3.00;99.90
40287;DHT22;25998;46.604;13.610;2022-11-30T18:02:54;3.10;99.90
40287;DHT22;25998;46.604;13.610;2022-11-30T18:06:05;3.10;99.90
40287;DHT22;25998;46.604;13.610;2022-11-30T18:09:15;3.00;99.90
40287;DHT22;25998;46.604;13.610;2022-11-30T18:12:26;3.00;99.90
40287;DHT22;25998;46.604;13.610;2022-11-30T18:15:37;3.00;99.90
40287;DHT22;25998;46.604;13.610;2022-11-30T18:18:48;2.90;99.90
40287;DHT22;25998;46.604;13.610;2022-11-30T18:21:59;3.00;99.90
40287;DHT22;25998;46.604;13.610;2022-11-30T18:25:10;2.90;99.90
40287;DHT22;25998;46.604;13.610;2022-11-30T18:28:29;2.90;99.90
40287;DHT22;25998;46.604;13.610;2022-11-30T18:31:40;2.70;99.90
40287;DHT22;25998;46.604;13.610;2022-11-30T18:34:51;2.70;99.90
40287;DHT22;25998;46.604;13.610;2022-11-30T18:38:01;2.90;99.90
40287;DHT22;25998;46.604;13.610;2022-11-30T18:41:12;3.00;99.90
40287;DHT22;25998;46.604;13.610;2022-11-30T18:44:25;3.00;99.90
40287;DHT22;25998;46.604;13.610;2022-11-30T18:47:36;3.10;99.90
40287;DHT22;25998;46.604;13.610;2022-11-30T18:50:47;2.90;99.90
40287;DHT22;25998;46.604;13.610;2022-11-30T18:54:05;3.00;99.90
40287;DHT22;25998;46.604;13.610;2022-11-30T18:57:16;3.00;99.90
40287;DHT22;25998;46.604;13.610;2022-11-30T19:00:27;2.90;99.90
40287;DHT22;25998;46.604;13.610;2022-11-30T19:03:39;3.00;99.90
40287;DHT22;25998;46.604;13.610;2022-11-30T19:06:53;3.10;99.90
40287;DHT22;25998;46.604;13.610;2022-11-30T19:10:07;2.90;99.90
40287;DHT22;25998;46.604;13.610;2022-11-30T19:13:18;2.80;99.90
40287;DHT22;25998;46.604;13.610;2022-11-30T19:16:30;2.80;99.90
40287;DHT22;25998;46.604;13.610;2022-11-30T19:19:42;2.90;99.90
40287;DHT22;25998;46.604;13.610;2022-11-30T19:22:53;3.00;99.90
40287;DHT22;25998;46.604;13.610;2022-11-30T19:26:06;3.10;99.90
40287;DHT22;25998;46.604;13.610;2022-11-30T19:29:17;3.10;99.90
40287;DHT22;25998;46.604;13.610;2022-11-30T19:32:28;3.00;99.90
40287;DHT22;25998;46.604;13.610;2022-11-30T19:35:39;2.90;99.90
40287;DHT22;25998;46.604;13.610;2022-11-30T19:38:50;2.80;99.90
40287;DHT22;25998;46.604;13.610;2022-11-30T19:42:01;2.80;99.90
40287;DHT22;25998;46.604;13.610;2022-11-30T19:45:11;2.80;99.90
40287;DHT22;25998;46.604;13.610;2022-11-30T19:48:22;2.80;99.90
40287;DHT22;25998;46.604;13.610;2022-11-30T19:51:33;2.80;99.90
40287;DHT22;25998;46.604;13.610;2022-11-30T19:54:44;2.70;99.90
40287;DHT22;25998;46.604;13.610;2022-11-30T19:57:58;2.80;99.90
40287;DHT22;25998;46.604;13.610;2022-11-30T20:01:13;2.90;99.90
40287;DHT22;25998;46.604;13.610;2022-11-30T20:04:24;3.00;99.90
40287;DHT22;25998;46.604;13.610;2022-11-30T20:07:35;2.90;99.90
40287;DHT22;25998;46.604;13.610;2022-11-30T20:10:46;3.00;99.90
40287;DHT22;25998;46.604;13.610;2022-11-30T20:13:57;2.90;99.90
40287;DHT22;25998;46.604;13.610;2022-11-30T20:17:09;2.70;99.90
40287;DHT22;25998;46.604;13.610;2022-11-30T20:20:20;2.60;99.90
40287;DHT22;25998;46.604;13.610;2022-11-30T20:23:33;2.60;99.90
40287;DHT22;25998;46.604;13.610;2022-11-30T20:26:44;2.70;99.90
40287;DHT22;25998;46.604;13.610;2022-11-30T20:29:55;2.70;99.90
40287;DHT22;25998;46.604;13.610;2022-11-30T20:33:06;2.80;99.90
40287;DHT22;25998;46.604;13.610;2022-11-30T20:36:18;2.70;99.90
40287;DHT22;25998;46.604;13.610;2022-11-30T20:39:29;2.50;99.90
40287;DHT22;25998;46.604;13.610;2022-11-30T20:42:40;2.50;99.90
40287;DHT22;25998;46.604;13.610;2022-11-30T20:45:51;2.60;99.90
40287;DHT22;25998;46.604;13.610;2022-11-30T20:49:03;2.60;99.90
40287;DHT22;25998;46.604;13.610;2022-11-30T20:52:21;2.60;99.90
40287;DHT22;25998;46.604;13.610;2022-11-30T20:55:32;2.70;99.90
40287;DHT22;25998;46.604;13.610;2022-11-30T20:58:42;2.80;99.90
40287;DHT22;25998;46.604;13.610;2022-11-30T21:01:54;2.80;99.90
40287;DHT22;25998;46.604;13.610;2022-11-30T21:05:05;2.60;99.90
40287;DHT22;25998;46.604;13.610;2022-11-30T21:08:16;2.70;99.90
40287;DHT22;25998;46.604;13.610;2022-11-30T21:11:30;2.60;99.90
40287;DHT22;25998;46.604;13.610;2022-11-30T21:14:41;2.80;99.90
40287;DHT22;25998;46.604;13.610;2022-11-30T21:17:52;2.80;99.90
40287;DHT22;25998;46.604;13.610;2022-11-30T21:21:04;2.80;99.90
40287;DHT22;25998;46.604;13.610;2022-11-30T21:24:15;2.90;99.90
40287;DHT22;25998;46.604;13.610;2022-11-30T21:27:26;2.90;99.90
40287;DHT22;25998;46.604;13.610;2022-11-30T21:30:37;2.70;99.90
40287;DHT22;25998;46.604;13.610;2022-11-30T21:33:49;2.70;99.90
40287;DHT22;25998;46.604;13.610;2022-11-30T21:37:00;2.80;99.90
40287;DHT22;25998;46.604;13.610;2022-11-30T21:40:11;2.80;99.90
40287;DHT22;25998;46.604;13.610;2022-11-30T21:43:22;2.70;99.90
40287;DHT22;25998;46.604;13.610;2022-11-30T21:46:36;2.60;99.90
40287;DHT22;25998;46.604;13.610;2022-11-30T21:49:46;2.60;99.90
40287;DHT22;25998;46.604;13.610;2022-11-30T21:52:57;2.60;99.90
40287;DHT22;25998;46.604;13.610;2022-11-30T21:56:11;2.70;99.90
40287;DHT22;25998;46.604;13.610;2022-11-30T21:59:22;2.90;99.90
40287;DHT22;25998;46.604;13.610;2022-11-30T22:02:33;2.90;99.90
40287;DHT22;25998;46.604;13.610;2022-11-30T22:05:44;2.90;99.90
40287;DHT22;25998;46.604;13.610;2022-11-30T22:08:56;2.90;99.90
40287;DHT22;25998;46.604;13.610;2022-11-30T22:12:12;3.00;99.90
40287;DHT22;25998;46.604;13.610;2022-11-30T22:15:23;3.00;99.90